createdAt,value
2022-10-29T00:00:21.588Z,100065.41
2022-10-29T00:02:53.952Z,100063.25
2022-10-29T00:05:25.655Z,100058.59
2022-10-29T00:07:58.054Z,100054.31
2022-10-29T00:10:30.456Z,100060.75
2022-10-29T00:13:04.218Z,100068.56
2022-10-29T00:15:40.690Z,100074.88
2022-10-29T00:18:13.755Z,100075.69
2022-10-29T00:20:49.781Z,100079.19
2022-10-29T00:23:21.358Z,100084.66
2022-10-29T00:25:57.474Z,100078.22
2022-10-29T00:28:32.298Z,100077.72
2022-10-29T00:31:08.147Z,100077.06
2022-10-29T00:33:39.893Z,100084.19
2022-10-29T00:36:23.400Z,100080.41
2022-10-29T00:39:00.887Z,100088.53
2022-10-29T00:41:35.339Z,100085.03
2022-10-29T00:44:20.683Z,100080.91
2022-10-29T00:47:19.718Z,100086.06
2022-10-29T00:49:57.683Z,100080.44
2022-10-29T00:52:37.468Z,100070.66
2022-10-29T00:55:17.314Z,100085.25
2022-10-29T00:57:54.370Z,100081.28
2022-10-29T01:00:27.956Z,100072.47
2022-10-29T01:02:59.659Z,100078.13
2022-10-29T01:05:33.348Z,100081.94
2022-10-29T01:08:10.362Z,100077.09
2022-10-29T01:10:44.891Z,100071.81
2022-10-29T01:13:39.374Z,100067.69
2022-10-29T01:16:38.505Z,100073.81
2022-10-29T01:19:24.069Z,100064.19
2022-10-29T01:22:05.388Z,100067.19
2022-10-29T01:25:07.835Z,100060.53
2022-10-29T01:28:03.776Z,100065.34
2022-10-29T01:31:00.769Z,100067.69
2022-10-29T01:33:50.815Z,100060.72
2022-10-29T01:36:37.728Z,100066.19
2022-10-29T01:39:30.790Z,100054.94
2022-10-29T01:42:14.175Z,100057.91
2022-10-29T01:45:13.131Z,100058.72
2022-10-29T01:47:51.279Z,100045.63
2022-10-29T01:50:24.934Z,100050.28
2022-10-29T01:52:57.523Z,100047.13
2022-10-29T01:55:35.144Z,100049.09
2022-10-29T01:58:07.536Z,100046.44
2022-10-29T02:01:02.423Z,100061.84
2022-10-29T02:03:42.635Z,100056.91
2022-10-29T02:06:34.335Z,100057.22
2022-10-29T02:09:29.823Z,100047.59
2022-10-29T02:12:27.297Z,100050.91
2022-10-29T02:15:13.154Z,100047.91
2022-10-29T02:17:44.987Z,100038.31
2022-10-29T02:20:17.060Z,100033.34
2022-10-29T02:22:48.635Z,100039.78
2022-10-29T02:25:20.378Z,100032.19
2022-10-29T02:27:52.199Z,100038.47
2022-10-29T02:30:23.883Z,100033.19
2022-10-29T02:32:58.066Z,100031.50
2022-10-29T02:35:29.921Z,100031.34
2022-10-29T02:38:04.596Z,100033.03
2022-10-29T02:40:36.013Z,100032.19
2022-10-29T02:43:07.918Z,100036.81
2022-10-29T02:45:41.514Z,100032.50
2022-10-29T02:48:13.396Z,100035.97
2022-10-29T02:50:45.011Z,100033.31
2022-10-29T02:53:16.602Z,100042.44
2022-10-29T02:55:48.229Z,100036.31
2022-10-29T03:00:56.311Z,100029.66
2022-10-29T03:03:29.909Z,100029.34
2022-10-29T03:06:05.223Z,100017.91
2022-10-29T03:08:39.703Z,100014.59
2022-10-29T03:11:12.094Z,100022.56
2022-10-29T03:13:46.746Z,100012.13
2022-10-29T03:16:18.170Z,100009.47
2022-10-29T03:18:50.779Z,100016.94
2022-10-29T03:21:24.711Z,100006.31
2022-10-29T03:23:56.312Z,100010.59
2022-10-29T03:26:27.913Z,100023.84
2022-10-29T03:28:59.708Z,100032.63
2022-10-29T03:31:33.431Z,100032.31
2022-10-29T03:34:06.253Z,100033.78
2022-10-29T03:36:37.856Z,100042.41
2022-10-29T03:39:09.488Z,100048.06
2022-10-29T03:41:41.083Z,100053.50
2022-10-29T03:44:12.701Z,100049.88
2022-10-29T03:46:47.898Z,100045.56
2022-10-29T03:49:22.294Z,100030.31
2022-10-29T03:51:53.940Z,100034.63
2022-10-29T03:54:25.564Z,100035.75
2022-10-29T03:56:57.467Z,100040.09
2022-10-29T03:59:31.065Z,100034.44
2022-10-29T04:02:02.791Z,100040.75
2022-10-29T04:04:41.770Z,100040.91
2022-10-29T04:07:16.405Z,100034.44
2022-10-29T04:09:47.858Z,100032.44
2022-10-29T04:12:23.468Z,100032.25
2022-10-29T04:14:55.053Z,100034.41
2022-10-29T04:17:29.615Z,100046.97
2022-10-29T04:20:01.321Z,100061.97
2022-10-29T04:28:52.054Z,100053.03
2022-10-29T04:31:23.680Z,100047.59
2022-10-29T04:33:55.667Z,100053.38
2022-10-29T04:36:27.258Z,100069.13
2022-10-29T04:38:58.870Z,100064.66
2022-10-29T04:41:30.469Z,100057.84
2022-10-29T04:44:02.606Z,100061.50
2022-10-29T04:46:37.044Z,100063.47
2022-10-29T04:49:08.695Z,100053.72
2022-10-29T04:51:42.458Z,100052.06
2022-10-29T04:54:15.624Z,100052.38
2022-10-29T04:56:49.500Z,100059.66
2022-10-29T04:59:24.433Z,100057.97
2022-10-29T05:01:55.861Z,100065.94
2022-10-29T05:04:29.512Z,100064.25
2022-10-29T05:07:02.987Z,100074.97
2022-10-29T05:09:34.893Z,100066.53
2022-10-29T05:12:10.345Z,100075.44
2022-10-29T05:14:48.249Z,100063.53
2022-10-29T05:17:20.019Z,100054.25
2022-10-29T05:19:54.803Z,100056.22
2022-10-29T05:22:28.419Z,100062.50
2022-10-29T05:25:00.350Z,100058.19
2022-10-29T05:27:31.999Z,100066.44
2022-10-29T05:30:07.627Z,100073.56
2022-10-29T05:32:39.259Z,100084.13
2022-10-29T05:35:10.847Z,100083.31
2022-10-29T05:37:42.405Z,100082.63
2022-10-29T05:40:14.096Z,100083.78
2022-10-29T05:42:47.399Z,100085.06
2022-10-29T05:45:21.874Z,100082.59
2022-10-29T05:48:01.736Z,100088.88
2022-10-29T05:50:36.358Z,100086.38
2022-10-29T05:53:11.458Z,100092.50
2022-10-29T05:55:43.456Z,100103.06
2022-10-29T05:58:15.081Z,100102.25
2022-10-29T06:00:47.034Z,100101.09
2022-10-29T06:03:21.986Z,100093.63
2022-10-29T06:05:53.948Z,100104.56
2022-10-29T06:08:25.656Z,100102.53
2022-10-29T06:11:00.880Z,100115.59
2022-10-29T06:13:33.015Z,100104.34
2022-10-29T06:16:07.738Z,100101.41
2022-10-29T06:18:39.151Z,100098.16
2022-10-29T06:21:13.522Z,100095.69
2022-10-29T06:23:45.194Z,100089.13
2022-10-29T06:26:20.195Z,100099.69
2022-10-29T06:28:51.639Z,100100.34
2022-10-29T06:31:23.290Z,100100.06
2022-10-29T06:33:57.235Z,100103.44
2022-10-29T06:36:28.865Z,100109.13
2022-10-29T06:39:00.538Z,100112.97
2022-10-29T06:41:32.158Z,100112.59
2022-10-29T06:44:03.825Z,100113.13
2022-10-29T06:46:35.873Z,100111.03
2022-10-29T06:49:08.540Z,100112.91
2022-10-29T06:51:40.163Z,100114.78
2022-10-29T06:54:14.518Z,100111.81
2022-10-29T06:56:46.291Z,100106.22
2022-10-29T06:59:17.940Z,100118.84
2022-10-29T07:01:52.595Z,100123.50
2022-10-29T07:04:24.323Z,100130.16
2022-10-29T07:06:55.955Z,100123.84
2022-10-29T07:09:29.875Z,100125.53
2022-10-29T07:12:01.487Z,100122.38
2022-10-29T07:14:35.494Z,100127.66
2022-10-29T07:17:07.087Z,100129.47
2022-10-29T07:19:38.721Z,100132.13
2022-10-29T07:22:14.390Z,100125.84
2022-10-29T07:24:45.998Z,100135.59
2022-10-29T07:27:18.111Z,100142.41
2022-10-29T07:29:52.570Z,100139.41
2022-10-29T07:32:25.193Z,100139.25
2022-10-29T07:34:59.547Z,100141.06
2022-10-29T07:37:35.359Z,100137.91
2022-10-29T07:40:10.474Z,100142.88
2022-10-29T07:42:42.370Z,100148.69
2022-10-29T07:45:15.015Z,100154.19
2022-10-29T07:47:48.459Z,100155.19
2022-10-29T07:50:20.083Z,100160.97
2022-10-29T07:52:51.675Z,100159.69
2022-10-29T07:55:23.427Z,100157.13
2022-10-29T07:58:04.572Z,100155.31
2022-10-29T08:00:39.000Z,100153.16
2022-10-29T08:03:12.584Z,100150.19
2022-10-29T08:05:45.754Z,100159.00
2022-10-29T08:08:17.789Z,100154.53
2022-10-29T08:10:49.375Z,100152.22
2022-10-29T08:13:21.966Z,100145.59
2022-10-29T08:15:55.057Z,100155.03
2022-10-29T08:18:26.925Z,100156.50
2022-10-29T08:20:58.571Z,100153.56
2022-10-29T08:23:32.615Z,100150.91
2022-10-29T08:26:04.281Z,100147.06
2022-10-29T08:28:36.282Z,100141.09
2022-10-29T08:31:07.868Z,100133.75
2022-10-29T08:36:27.624Z,100126.38
2022-10-29T08:39:01.629Z,100130.19
2022-10-29T08:41:43.200Z,100126.47
2022-10-29T08:44:33.559Z,100127.66
2022-10-29T08:48:00.690Z,100132.31
2022-10-29T08:50:41.145Z,100142.97
2022-10-29T08:53:31.294Z,100134.75
2022-10-29T08:56:16.501Z,100130.72
2022-10-29T08:59:16.878Z,100132.28
2022-10-29T09:01:48.868Z,100114.63
2022-10-29T09:04:38.819Z,100112.94
2022-10-29T09:07:29.122Z,100108.09
2022-10-29T09:10:09.659Z,100110.91
2022-10-29T09:13:00.231Z,100099.53
2022-10-29T09:15:42.677Z,100097.59
2022-10-29T09:18:24.811Z,100100.31
2022-10-29T09:21:22.342Z,100101.31
2022-10-29T09:24:51.466Z,100096.78
2022-10-29T09:27:44.252Z,100097.44
2022-10-29T09:30:22.595Z,100090.25
2022-10-29T09:33:10.402Z,100089.41
2022-10-29T09:35:47.674Z,100086.66
2022-10-29T09:39:00.565Z,100101.38
2022-10-29T09:41:34.485Z,100087.84
2022-10-29T09:44:21.675Z,100089.16
2022-10-29T09:47:44.082Z,100075.34
2022-10-29T09:50:36.077Z,100062.00
2022-10-29T09:53:14.052Z,100063.53
2022-10-29T09:55:54.021Z,100058.81
2022-10-29T09:58:27.665Z,100051.69
2022-10-29T10:00:59.243Z,100051.66
2022-10-29T10:03:46.263Z,100047.31
2022-10-29T10:06:18.197Z,100049.31
2022-10-29T10:09:01.814Z,100054.94
2022-10-29T10:11:42.686Z,100037.69
2022-10-29T10:14:23.598Z,100032.34
2022-10-29T10:17:00.029Z,100041.88
2022-10-29T10:19:32.645Z,100039.84
2022-10-29T10:22:08.537Z,100032.59
2022-10-29T10:24:43.519Z,100030.50
2022-10-29T10:27:17.877Z,100027.81
2022-10-29T10:30:04.647Z,100031.28
2022-10-29T10:32:36.915Z,100031.97
2022-10-29T10:35:40.842Z,100033.97
2022-10-29T10:38:15.084Z,100033.56
2022-10-29T10:40:54.547Z,100023.59
2022-10-29T10:43:29.207Z,100013.50
2022-10-29T10:46:06.704Z,100014.59
2022-10-29T10:48:38.699Z,100014.81
2022-10-29T10:51:22.402Z,100007.00
2022-10-29T10:53:54.399Z,99998.66
2022-10-29T10:56:26.538Z,99991.22
2022-10-29T10:59:24.896Z,99992.81
2022-10-29T11:02:00.749Z,100000.94
2022-10-29T11:04:40.088Z,99994.16
2022-10-29T11:07:14.078Z,99986.31
2022-10-29T11:09:50.186Z,99990.94
2022-10-29T11:12:37.147Z,99980.91
2022-10-29T11:15:24.247Z,99973.09
2022-10-29T11:18:03.129Z,99966.81
2022-10-29T11:20:42.012Z,99972.03
2022-10-29T11:23:29.579Z,99974.00
2022-10-29T11:26:09.688Z,99965.25
2022-10-29T11:28:48.789Z,99964.38
2022-10-29T11:31:40.295Z,99960.13
2022-10-29T11:34:21.350Z,99955.25
2022-10-29T11:37:28.364Z,99954.97
2022-10-29T11:40:38.066Z,99943.91
2022-10-29T11:43:13.592Z,99946.28
2022-10-29T11:46:06.865Z,99936.44
2022-10-29T11:49:10.886Z,99941.34
2022-10-29T11:52:02.475Z,99921.75
2022-10-29T11:54:52.414Z,99930.31
2022-10-29T11:58:01.439Z,99931.16
2022-10-29T12:00:50.657Z,99934.13
2022-10-29T12:03:49.273Z,99924.75
2022-10-29T12:06:32.052Z,99931.34
2022-10-29T12:09:34.219Z,99925.44
2022-10-29T12:12:24.430Z,99924.19
2022-10-29T12:15:13.487Z,99915.59
2022-10-29T12:18:23.074Z,99911.00
2022-10-29T12:21:06.945Z,99894.97
2022-10-29T12:23:57.166Z,99902.31
2022-10-29T12:26:55.095Z,99893.00
2022-10-29T12:29:57.104Z,99893.16
2022-10-29T12:32:57.898Z,99899.13
2022-10-29T12:35:39.651Z,99891.84
2022-10-29T12:38:31.024Z,99887.84
2022-10-29T12:41:25.534Z,99891.31
2022-10-29T12:44:11.012Z,99889.56
2022-10-29T12:47:19.788Z,99888.81
2022-10-29T12:50:00.437Z,99885.88
2022-10-29T12:52:44.092Z,99882.41
2022-10-29T12:55:19.670Z,99876.50
2022-10-29T12:57:51.392Z,99876.59
2022-10-29T13:00:43.759Z,99869.84
2022-10-29T13:03:52.891Z,99870.41
2022-10-29T13:06:42.655Z,99874.50
2022-10-29T13:09:43.033Z,99877.53
2022-10-29T13:12:56.562Z,99868.28
2022-10-29T13:15:58.655Z,99861.97
2022-10-29T13:18:41.688Z,99875.56
2022-10-29T13:21:13.903Z,99870.97
2022-10-29T13:24:03.031Z,99876.56
2022-10-29T13:27:33.287Z,99870.59
2022-10-29T13:30:19.032Z,99854.59
2022-10-29T13:32:50.665Z,99854.34
2022-10-29T13:35:25.147Z,99853.41
2022-10-29T13:38:08.783Z,99857.75
2022-10-29T13:41:02.353Z,99856.81
2022-10-29T13:43:35.114Z,99864.75
2022-10-29T13:46:17.455Z,99857.72
2022-10-29T13:48:53.433Z,99860.19
2022-10-29T13:51:32.241Z,99852.78
2022-10-29T13:54:22.326Z,99845.91
2022-10-29T13:57:17.371Z,99849.16
2022-10-29T13:59:53.798Z,99849.41
2022-10-29T14:02:54.844Z,99849.97
2022-10-29T14:05:41.652Z,99854.31
2022-10-29T14:08:29.916Z,99838.50
2022-10-29T14:11:18.179Z,99841.72
2022-10-29T14:13:52.515Z,99838.16
2022-10-29T14:16:27.441Z,99848.72
2022-10-29T14:19:19.601Z,99837.63
2022-10-29T14:21:53.002Z,99842.56
2022-10-29T14:24:24.600Z,99845.22
2022-10-29T14:27:07.789Z,99847.75
2022-10-29T14:29:39.527Z,99850.19
2022-10-29T14:32:19.644Z,99853.75
2022-10-29T14:34:51.989Z,99850.50
2022-10-29T14:37:31.168Z,99854.81
2022-10-29T14:40:17.437Z,99853.56
2022-10-29T14:42:55.627Z,99845.03
2022-10-29T14:45:30.465Z,99853.03
2022-10-29T14:48:09.183Z,99851.28
2022-10-29T14:50:46.257Z,99856.31
2022-10-29T14:53:43.692Z,99858.22
2022-10-29T14:56:20.050Z,99862.75
2022-10-29T14:58:51.977Z,99860.06
2022-10-29T15:01:25.751Z,99868.72
2022-10-29T15:04:00.896Z,99862.91
2022-10-29T15:06:35.265Z,99861.88
2022-10-29T15:09:20.218Z,99857.38
2022-10-29T15:12:07.506Z,99857.03
2022-10-29T15:14:55.411Z,99859.00
2022-10-29T15:17:31.045Z,99869.53
2022-10-29T15:20:06.535Z,99863.38
2022-10-29T15:22:42.702Z,99860.97
2022-10-29T15:25:23.244Z,99863.69
2022-10-29T15:27:55.299Z,99861.03
2022-10-29T15:30:35.589Z,99861.47
2022-10-29T15:33:20.840Z,99869.09
2022-10-29T15:36:01.159Z,99869.72
2022-10-29T15:38:35.543Z,99879.41
2022-10-29T15:41:18.931Z,99870.94
2022-10-29T15:43:55.276Z,99877.13
2022-10-29T15:46:29.512Z,99873.25
2022-10-29T15:49:01.180Z,99877.00
2022-10-29T15:51:35.787Z,99877.97
2022-10-29T15:54:16.142Z,99885.63
2022-10-29T15:56:48.880Z,99877.78
2022-10-29T15:59:24.645Z,99873.66
2022-10-29T16:01:56.332Z,99884.34
2022-10-29T16:04:28.068Z,99887.47
2022-10-29T16:07:00.048Z,99883.34
2022-10-29T16:09:32.727Z,99892.38
2022-10-29T16:12:04.540Z,99889.50
2022-10-29T16:14:36.212Z,99890.53
2022-10-29T16:17:15.943Z,99891.97
2022-10-29T16:19:48.275Z,99887.44
2022-10-29T16:22:37.246Z,99886.22
2022-10-29T16:25:35.492Z,99879.81
2022-10-29T16:28:07.515Z,99870.59
2022-10-29T16:33:12.184Z,99886.00
2022-10-29T16:35:44.509Z,99886.63
2022-10-29T16:38:18.509Z,99889.91
2022-10-29T16:40:51.057Z,99894.03
2022-10-29T16:43:24.495Z,99887.66
2022-10-29T16:45:57.584Z,99898.56
2022-10-29T16:48:34.649Z,99890.34
2022-10-29T16:51:14.471Z,99892.81
2022-10-29T16:53:46.310Z,99892.81
2022-10-29T16:56:18.491Z,99892.81
2022-10-29T16:58:52.291Z,99892.19
2022-10-29T17:01:23.936Z,99890.72
2022-10-29T17:03:55.631Z,99887.44
2022-10-29T17:06:30.287Z,99884.97
2022-10-29T17:09:01.928Z,99883.13
2022-10-29T17:11:33.556Z,99897.94
2022-10-29T17:14:05.132Z,99895.47
2022-10-29T17:16:38.794Z,99884.38
2022-10-29T17:19:10.387Z,99882.09
2022-10-29T17:21:42.163Z,99881.69
2022-10-29T17:24:13.782Z,99887.41
2022-10-29T17:26:45.424Z,99884.13
2022-10-29T17:29:17.786Z,99891.72
2022-10-29T17:31:52.992Z,99888.63
2022-10-29T17:34:25.288Z,99893.13
2022-10-29T17:36:56.984Z,99883.69
2022-10-29T17:39:28.621Z,99898.25
2022-10-29T17:42:00.859Z,99889.63
2022-10-29T17:44:37.256Z,99896.22
2022-10-29T17:47:09.056Z,99895.34
2022-10-29T17:49:42.736Z,99890.59
2022-10-29T17:52:14.331Z,99894.66
2022-10-29T17:54:45.911Z,99894.44
2022-10-29T17:57:18.764Z,99894.88
2022-10-29T17:59:50.435Z,99894.66
2022-10-29T18:02:23.181Z,99900.78
2022-10-29T18:04:57.573Z,99894.16
2022-10-29T18:07:29.168Z,99899.91
2022-10-29T18:10:00.786Z,99900.31
2022-10-29T18:12:32.593Z,99898.88
2022-10-29T18:15:05.393Z,99900.28
2022-10-29T18:17:37.072Z,99895.53
2022-10-29T18:20:09.362Z,99895.72
2022-10-29T18:22:44.538Z,99887.88
2022-10-29T18:25:16.193Z,99886.22
2022-10-29T18:27:48.536Z,99899.16
2022-10-29T18:30:22.750Z,99903.66
2022-10-29T18:32:54.693Z,99899.75
2022-10-29T18:35:30.071Z,99891.13
2022-10-29T18:38:01.644Z,99897.88
2022-10-29T18:40:33.237Z,99892.91
2022-10-29T18:43:04.942Z,99893.69
2022-10-29T18:45:36.562Z,99898.38
2022-10-29T18:48:11.217Z,99888.94
2022-10-29T18:50:43.032Z,99893.84
2022-10-29T18:53:18.002Z,99895.06
2022-10-29T18:55:53.653Z,99881.53
2022-10-29T18:58:29.313Z,99889.91
2022-10-29T19:01:09.545Z,99882.69
2022-10-29T19:03:48.431Z,99892.94
2022-10-29T19:06:21.215Z,99889.16
2022-10-29T19:08:52.908Z,99888.72
2022-10-29T19:11:28.772Z,99883.97
2022-10-29T19:14:06.150Z,99873.06
2022-10-29T19:16:37.768Z,99876.69
2022-10-29T19:19:12.876Z,99885.09
2022-10-29T19:21:47.446Z,99889.13
2022-10-29T19:24:19.005Z,99884.00
2022-10-29T19:26:50.613Z,99883.19
2022-10-29T19:29:22.354Z,99896.28
2022-10-29T19:31:53.953Z,99894.16
2022-10-29T19:34:25.721Z,99896.03
2022-10-29T19:36:57.342Z,99897.41
2022-10-29T19:39:28.995Z,99896.78
2022-10-29T19:42:00.631Z,99893.28
2022-10-29T19:44:32.284Z,99886.13
2022-10-29T19:47:04.701Z,99896.97
2022-10-29T19:49:36.304Z,99902.47
2022-10-29T19:52:08.081Z,99896.31
2022-10-29T19:54:40.039Z,99900.00
2022-10-29T19:57:14.451Z,99898.56
2022-10-29T19:59:46.076Z,99892.97
2022-10-29T20:02:17.708Z,99902.56
2022-10-29T20:04:49.397Z,99901.25
2022-10-29T20:07:20.993Z,99906.81
2022-10-29T20:09:57.026Z,99909.47
2022-10-29T20:12:31.624Z,99904.50
2022-10-29T20:15:04.563Z,99896.91
2022-10-29T20:17:36.438Z,99898.09
2022-10-29T20:20:14.157Z,99891.50
2022-10-29T20:22:50.153Z,99892.69
2022-10-29T20:25:23.833Z,99896.56
2022-10-29T20:27:57.983Z,99905.34
2022-10-29T20:30:30.171Z,99909.25
2022-10-29T20:33:01.787Z,99906.94
2022-10-29T20:35:33.458Z,99914.31
2022-10-29T20:38:05.813Z,99916.31
2022-10-29T20:40:37.492Z,99911.38
2022-10-29T20:43:16.229Z,99903.56
2022-10-29T20:45:47.901Z,99903.72
2022-10-29T20:48:22.455Z,99898.56
2022-10-29T20:50:53.959Z,99902.28
2022-10-29T20:53:25.559Z,99904.47
2022-10-29T20:55:57.550Z,99901.16
2022-10-29T20:58:31.867Z,99899.53
2022-10-29T21:01:07.075Z,99902.94
2022-10-29T21:03:42.111Z,99905.94
2022-10-29T21:06:17.636Z,99905.31
2022-10-29T21:08:51.235Z,99902.00
2022-10-29T21:11:24.427Z,99900.19
2022-10-29T21:13:58.698Z,99900.00
2022-10-29T21:16:30.375Z,99901.00
2022-10-29T21:19:04.742Z,99896.69
2022-10-29T21:21:36.407Z,99903.84
2022-10-29T21:24:08.073Z,99899.72
2022-10-29T21:26:39.724Z,99896.44
2022-10-29T21:29:11.332Z,99899.25
2022-10-29T21:31:42.947Z,99895.78
2022-10-29T21:34:17.260Z,99893.50
2022-10-29T21:36:49.645Z,99901.00
2022-10-29T21:39:22.263Z,99896.91
2022-10-29T21:41:55.970Z,99891.94
2022-10-29T21:44:27.655Z,99892.09
2022-10-29T21:46:59.271Z,99887.63
2022-10-29T21:49:30.845Z,99887.63
2022-10-29T21:52:02.515Z,99881.66
2022-10-29T21:54:34.106Z,99881.84
2022-10-29T21:57:05.988Z,99884.06
2022-10-29T21:59:37.564Z,99886.91
2022-10-29T22:02:09.244Z,99888.72
2022-10-29T22:04:40.974Z,99893.56
2022-10-29T22:07:12.709Z,99893.78
2022-10-29T22:09:44.352Z,99895.78
2022-10-29T22:12:18.296Z,99907.44
2022-10-29T22:14:49.960Z,99907.16
2022-10-29T22:17:21.675Z,99898.53
2022-10-29T22:19:53.250Z,99912.03
2022-10-29T22:22:26.868Z,99906.06
2022-10-29T22:24:58.424Z,99916.88
2022-10-29T22:27:30.472Z,99911.09
2022-10-29T22:30:05.327Z,99905.13
2022-10-29T22:32:36.926Z,99902.00
2022-10-29T22:35:09.854Z,99901.75
2022-10-29T22:37:41.480Z,99904.91
2022-10-29T22:40:13.115Z,99904.47
2022-10-29T22:42:44.732Z,99900.53
2022-10-29T22:45:16.376Z,99903.81
2022-10-29T22:47:47.988Z,99897.88
2022-10-29T22:50:19.587Z,99901.53
2022-10-29T22:52:51.244Z,99897.38
2022-10-29T22:55:25.865Z,99893.09
2022-10-29T22:57:57.400Z,99893.44
2022-10-29T23:00:29.282Z,99896.28
2022-10-29T23:03:06.188Z,99900.97
2022-10-29T23:05:37.835Z,99900.97
2022-10-29T23:08:09.554Z,99899.47
2022-10-29T23:10:41.129Z,99900.47
2022-10-29T23:13:19.930Z,99904.47
2022-10-29T23:15:54.504Z,99897.03
2022-10-29T23:18:25.987Z,99893.06
2022-10-29T23:21:01.971Z,99895.28
2022-10-29T23:23:35.227Z,99901.75
2022-10-29T23:26:06.977Z,99902.97
2022-10-29T23:28:41.710Z,99897.81
2022-10-29T23:31:22.262Z,99900.31
2022-10-29T23:33:56.159Z,99897.47
2022-10-29T23:36:28.104Z,99889.50
2022-10-29T23:39:03.606Z,99894.16
2022-10-29T23:41:35.291Z,99903.50
2022-10-29T23:44:06.890Z,99898.19
2022-10-29T23:46:38.770Z,99893.50
2022-10-29T23:49:11.021Z,99880.03
2022-10-29T23:51:47.634Z,99884.38
2022-10-29T23:54:19.237Z,99887.19
2022-10-29T23:56:50.838Z,99881.22
2022-10-29T23:59:25.146Z,99878.75
